createdAt,value
2022-12-27T00:00:36.796Z,3.03
2022-12-27T00:03:42.440Z,4.70
2022-12-27T00:06:46.865Z,4.47
2022-12-27T00:09:51.623Z,4.80
2022-12-27T00:12:55.985Z,4.40
2022-12-27T00:16:11.607Z,4.78
2022-12-27T00:19:16.575Z,3.95
2022-12-27T00:22:21.304Z,4.30
2022-12-27T00:25:25.922Z,3.92
2022-12-27T00:28:32.889Z,5.13
2022-12-27T00:31:37.931Z,4.45
2022-12-27T00:34:42.455Z,4.55
2022-12-27T00:37:46.763Z,3.90
2022-12-27T00:40:51.420Z,4.00
2022-12-27T00:43:56.345Z,4.10
2022-12-27T00:47:00.696Z,4.00
2022-12-27T00:50:05.755Z,3.85
2022-12-27T00:53:12.175Z,3.70
2022-12-27T00:56:21.785Z,4.65
2022-12-27T00:59:26.389Z,4.20
2022-12-27T01:02:31.283Z,4.80
2022-12-27T01:05:38.792Z,3.97
2022-12-27T01:08:43.968Z,4.20
2022-12-27T01:11:48.649Z,4.78
2022-12-27T01:14:53.107Z,4.13
2022-12-27T01:17:57.634Z,4.45
2022-12-27T01:21:12.224Z,4.70
2022-12-27T01:24:16.970Z,4.35
2022-12-27T01:27:21.240Z,4.35
2022-12-27T01:30:25.839Z,4.50
2022-12-27T01:33:30.412Z,4.18
2022-12-27T01:36:35.231Z,4.22
2022-12-27T01:39:39.752Z,4.22
2022-12-27T01:42:53.510Z,4.03
2022-12-27T01:45:58.818Z,4.60
2022-12-27T01:49:05.191Z,4.43
2022-12-27T01:52:11.189Z,4.43
2022-12-27T01:55:32.958Z,3.60
2022-12-27T01:58:47.836Z,5.15
2022-12-27T02:01:53.266Z,5.85
2022-12-27T02:04:58.256Z,4.10
2022-12-27T02:08:28.171Z,5.35
2022-12-27T02:11:51.178Z,3.92
2022-12-27T02:14:55.897Z,3.95
2022-12-27T02:18:01.023Z,4.63
2022-12-27T02:21:20.388Z,5.00
2022-12-27T02:24:41.009Z,4.45
2022-12-27T02:28:07.852Z,4.95
2022-12-27T02:31:51.506Z,4.13
2022-12-27T02:35:19.200Z,4.32
2022-12-27T02:38:44.754Z,5.47
2022-12-27T02:42:08.273Z,4.63
2022-12-27T02:45:39.292Z,5.18
2022-12-27T02:49:15.306Z,4.25
2022-12-27T02:53:30.851Z,4.30
2022-12-27T02:57:08.752Z,3.95
2022-12-27T03:00:34.112Z,4.05
2022-12-27T03:04:03.127Z,4.40
2022-12-27T03:07:22.595Z,4.18
2022-12-27T03:11:14.514Z,4.22
2022-12-27T03:15:05.271Z,4.25
2022-12-27T03:18:18.241Z,3.72
2022-12-27T03:21:59.565Z,3.63
2022-12-27T03:25:23.876Z,4.40
2022-12-27T03:28:48.994Z,3.92
2022-12-27T03:32:19.734Z,3.65
2022-12-27T03:35:28.274Z,4.90
2022-12-27T03:38:37.332Z,4.90
2022-12-27T03:42:14.457Z,4.20
2022-12-27T03:45:21.790Z,4.28
2022-12-27T03:48:32.011Z,4.88
2022-12-27T03:51:51.102Z,4.32
2022-12-27T03:54:57.092Z,3.88
2022-12-27T03:58:01.898Z,3.83
2022-12-27T04:01:06.747Z,3.83
2022-12-27T04:04:11.315Z,3.55
2022-12-27T04:07:16.486Z,3.90
2022-12-27T04:10:39.539Z,4.55
2022-12-27T04:14:02.627Z,3.92
2022-12-27T04:17:25.205Z,3.75
2022-12-27T04:20:48.215Z,4.32
2022-12-27T04:24:10.942Z,3.97
2022-12-27T04:27:33.663Z,4.13
2022-12-27T04:30:56.389Z,4.88
2022-12-27T04:34:19.248Z,4.70
2022-12-27T04:37:23.511Z,4.38
2022-12-27T04:40:46.388Z,5.47
2022-12-27T04:44:09.330Z,4.20
2022-12-27T04:47:36.321Z,4.75
2022-12-27T04:50:58.934Z,4.70
2022-12-27T04:54:21.874Z,4.90
2022-12-27T04:57:27.684Z,4.40
2022-12-27T05:00:52.064Z,3.95
2022-12-27T05:03:56.409Z,4.38
2022-12-27T05:07:24.136Z,4.18
2022-12-27T05:10:47.066Z,4.75
2022-12-27T05:14:03.228Z,4.25
2022-12-27T05:17:12.795Z,3.90
2022-12-27T05:20:17.591Z,4.28
2022-12-27T05:23:40.728Z,4.20
2022-12-27T05:26:45.483Z,4.90
2022-12-27T05:29:50.380Z,4.05
2022-12-27T05:32:56.019Z,4.68
2022-12-27T05:36:00.889Z,4.97
2022-12-27T05:39:05.402Z,3.92
2022-12-27T05:42:10.080Z,4.07
2022-12-27T05:45:14.467Z,4.35
2022-12-27T05:48:19.104Z,5.22
2022-12-27T05:51:23.683Z,4.07
2022-12-27T05:54:27.972Z,3.70
2022-12-27T05:57:34.184Z,5.03
2022-12-27T06:00:38.483Z,4.80
2022-12-27T06:03:43.033Z,4.85
2022-12-27T06:06:47.675Z,4.07
2022-12-27T06:09:52.052Z,4.00
2022-12-27T06:12:59.214Z,5.05
2022-12-27T06:16:06.557Z,3.75
2022-12-27T06:19:11.107Z,4.65
2022-12-27T06:22:15.796Z,4.70
2022-12-27T06:25:20.651Z,3.55
2022-12-27T06:28:25.275Z,4.55
2022-12-27T06:31:29.821Z,4.53
2022-12-27T06:34:34.410Z,5.38
2022-12-27T06:37:39.331Z,4.30
2022-12-27T06:40:44.242Z,3.90
2022-12-27T06:43:54.602Z,4.43
2022-12-27T06:46:59.386Z,4.25
2022-12-27T06:50:04.623Z,4.22
2022-12-27T06:53:09.150Z,3.75
2022-12-27T06:56:17.778Z,4.03
2022-12-27T06:59:22.133Z,4.00
2022-12-27T07:02:26.898Z,4.40
2022-12-27T07:05:32.211Z,3.63
2022-12-27T07:08:37.637Z,3.92
2022-12-27T07:11:42.298Z,3.80
2022-12-27T07:14:46.861Z,3.80
2022-12-27T07:17:51.133Z,3.78
2022-12-27T07:20:55.744Z,4.63
2022-12-27T07:24:00.217Z,4.47
2022-12-27T07:27:05.262Z,3.60
2022-12-27T07:30:10.587Z,3.75
2022-12-27T07:33:15.223Z,4.50
2022-12-27T07:36:26.259Z,4.68
2022-12-27T07:39:31.201Z,3.65
2022-12-27T07:42:35.904Z,3.13
2022-12-27T07:45:41.100Z,3.90
2022-12-27T07:48:47.367Z,3.88
2022-12-27T07:51:52.067Z,3.65
2022-12-27T07:54:56.766Z,3.42
2022-12-27T07:58:01.439Z,3.00
2022-12-27T08:01:07.096Z,4.28
2022-12-27T08:04:11.555Z,3.72
2022-12-27T08:07:19.179Z,4.53
2022-12-27T08:10:24.056Z,4.10
2022-12-27T08:13:28.825Z,4.85
2022-12-27T08:16:33.279Z,4.28
2022-12-27T08:19:37.638Z,3.92
2022-12-27T08:22:41.943Z,3.40
2022-12-27T08:25:48.825Z,3.65
2022-12-27T08:28:53.599Z,3.83
2022-12-27T08:31:58.452Z,4.07
2022-12-27T08:35:25.001Z,3.83
2022-12-27T08:38:27.971Z,4.50
2022-12-27T08:41:33.381Z,5.22
2022-12-27T08:44:38.124Z,4.55
2022-12-27T08:47:42.376Z,4.53
2022-12-27T08:50:46.742Z,4.72
2022-12-27T08:53:51.419Z,4.55
2022-12-27T08:56:56.137Z,5.13
2022-12-27T09:00:00.635Z,4.70
2022-12-27T09:03:05.327Z,4.13
2022-12-27T09:06:17.895Z,4.38
2022-12-27T09:09:22.517Z,3.72
2022-12-27T09:12:26.903Z,3.75
2022-12-27T09:15:31.422Z,4.53
2022-12-27T09:18:40.487Z,4.97
2022-12-27T09:21:45.078Z,3.90
2022-12-27T09:24:49.959Z,4.15
2022-12-27T09:27:55.148Z,4.03
2022-12-27T09:30:59.853Z,4.15
2022-12-27T09:34:04.243Z,4.57
2022-12-27T09:37:08.977Z,4.28
2022-12-27T09:40:19.782Z,4.68
2022-12-27T09:43:55.298Z,4.90
2022-12-27T09:47:25.280Z,4.93
2022-12-27T09:51:06.847Z,5.07
2022-12-27T09:54:18.743Z,5.65
2022-12-27T09:57:41.762Z,5.15
2022-12-27T10:00:46.595Z,5.50
2022-12-27T10:03:54.904Z,5.90
2022-12-27T10:07:29.201Z,7.13
2022-12-27T10:11:09.972Z,7.97
2022-12-27T10:14:21.580Z,7.07
2022-12-27T10:17:52.894Z,7.18
2022-12-27T10:21:25.230Z,7.82
2022-12-27T10:24:49.631Z,7.15
2022-12-27T10:28:30.116Z,6.78
2022-12-27T10:31:37.754Z,6.38
2022-12-27T10:34:42.098Z,7.40
2022-12-27T10:37:48.192Z,9.10
2022-12-27T10:41:03.292Z,7.22
2022-12-27T10:44:11.811Z,7.35
2022-12-27T10:47:16.719Z,7.68
2022-12-27T10:50:24.672Z,9.18
2022-12-27T10:54:00.189Z,9.10
2022-12-27T10:57:26.613Z,9.68
2022-12-27T11:00:31.259Z,8.52
2022-12-27T11:03:36.052Z,9.32
2022-12-27T11:06:42.736Z,8.82
2022-12-27T11:09:51.008Z,10.63
2022-12-27T11:13:05.401Z,10.00
2022-12-27T11:16:29.697Z,9.68
2022-12-27T11:19:34.839Z,9.15
2022-12-27T11:23:00.374Z,8.65
2022-12-27T11:26:06.911Z,9.48
2022-12-27T11:29:18.337Z,8.15
2022-12-27T11:32:24.001Z,6.70
2022-12-27T11:35:28.543Z,7.90
2022-12-27T11:38:36.430Z,6.93
2022-12-27T11:41:49.922Z,6.75
2022-12-27T11:45:13.520Z,7.07
2022-12-27T11:48:24.567Z,6.13
2022-12-27T11:52:06.486Z,5.45
2022-12-27T11:55:29.226Z,5.68
2022-12-27T11:58:42.744Z,5.50
2022-12-27T12:02:16.914Z,5.18
2022-12-27T12:05:51.034Z,4.70
2022-12-27T12:09:15.876Z,5.20
2022-12-27T12:13:09.803Z,4.45
2022-12-27T12:16:45.219Z,3.53
2022-12-27T12:20:17.748Z,3.47
2022-12-27T12:24:26.068Z,3.88
2022-12-27T12:27:45.772Z,4.25
2022-12-27T12:31:33.984Z,3.90
2022-12-27T12:35:06.620Z,4.00
2022-12-27T12:38:22.000Z,3.58
2022-12-27T12:41:51.111Z,3.65
2022-12-27T12:45:59.320Z,3.47
2022-12-27T12:49:18.916Z,3.45
2022-12-27T12:52:47.932Z,3.28
2022-12-27T12:56:52.773Z,2.85
2022-12-27T13:00:37.490Z,2.88
2022-12-27T13:04:17.718Z,2.80
2022-12-27T13:07:40.475Z,3.33
2022-12-27T13:11:29.482Z,3.88
2022-12-27T13:15:04.497Z,3.00
2022-12-27T13:19:03.571Z,3.42
2022-12-27T13:22:52.293Z,3.08
2022-12-27T13:26:34.898Z,3.08
2022-12-27T13:30:14.256Z,3.53
2022-12-27T13:33:51.855Z,3.08
2022-12-27T13:37:30.107Z,2.70
2022-12-27T13:41:07.842Z,3.42
2022-12-27T13:44:43.116Z,3.17
2022-12-27T13:48:02.908Z,3.30
2022-12-27T13:51:42.646Z,3.42
2022-12-27T13:55:34.823Z,2.83
2022-12-27T13:58:59.569Z,3.72
2022-12-27T14:02:38.104Z,3.75
2022-12-27T14:06:29.808Z,3.72
2022-12-27T14:10:02.196Z,3.40
2022-12-27T14:13:11.555Z,3.65
2022-12-27T14:16:40.929Z,3.28
2022-12-27T14:20:15.922Z,3.00
2022-12-27T14:23:40.640Z,3.92
2022-12-27T14:30:30.345Z,3.70
2022-12-27T14:34:09.979Z,3.40
2022-12-27T14:37:38.557Z,3.10
2022-12-27T14:41:37.099Z,3.58
2022-12-27T14:45:32.304Z,3.42
2022-12-27T14:48:42.557Z,3.10
2022-12-27T14:52:15.070Z,3.30
2022-12-27T14:56:12.645Z,4.80
2022-12-27T14:59:45.698Z,3.30
2022-12-27T15:03:15.145Z,2.90
2022-12-27T15:06:44.461Z,3.45
2022-12-27T15:10:03.803Z,3.13
2022-12-27T15:14:01.374Z,3.92
2022-12-27T15:17:25.828Z,3.30
2022-12-27T15:21:05.726Z,3.47
2022-12-27T15:24:51.898Z,3.80
2022-12-27T15:28:16.963Z,3.50
2022-12-27T15:31:53.275Z,3.40
2022-12-27T15:35:20.574Z,3.42
2022-12-27T15:38:42.330Z,3.35
2022-12-27T15:42:37.282Z,3.50
2022-12-27T15:46:35.822Z,3.20
2022-12-27T15:50:08.430Z,3.47
2022-12-27T15:53:47.987Z,2.70
2022-12-27T15:57:27.585Z,3.08
2022-12-27T16:00:34.547Z,2.88
2022-12-27T16:03:40.719Z,3.05
2022-12-27T16:06:50.376Z,3.67
2022-12-27T16:09:55.465Z,3.90
2022-12-27T16:13:11.826Z,3.67
2022-12-27T16:16:28.627Z,3.83
2022-12-27T16:20:02.370Z,4.38
2022-12-27T16:23:10.624Z,3.53
2022-12-27T16:26:29.938Z,3.75
2022-12-27T16:29:36.987Z,3.30
2022-12-27T16:32:49.046Z,3.25
2022-12-27T16:36:26.121Z,3.40
2022-12-27T16:39:57.969Z,3.20
2022-12-27T16:43:05.632Z,4.13
2022-12-27T16:46:32.565Z,4.07
2022-12-27T16:49:57.967Z,3.90
2022-12-27T16:53:45.976Z,3.50
2022-12-27T16:56:50.993Z,4.03
2022-12-27T17:00:07.747Z,3.05
2022-12-27T17:03:20.960Z,3.30
2022-12-27T17:06:33.712Z,2.67
2022-12-27T17:09:41.562Z,3.22
2022-12-27T17:12:52.229Z,3.55
2022-12-27T17:16:08.015Z,2.80
2022-12-27T17:19:30.655Z,3.80
2022-12-27T17:22:39.526Z,3.65
2022-12-27T17:26:04.653Z,3.85
2022-12-27T17:30:06.228Z,3.55
2022-12-27T17:33:40.142Z,3.33
2022-12-27T17:37:02.017Z,3.23
2022-12-27T17:40:20.146Z,4.72
2022-12-27T17:44:05.039Z,3.83
2022-12-27T17:47:30.796Z,3.15
2022-12-27T17:50:37.149Z,3.90
2022-12-27T17:54:11.439Z,3.85
2022-12-27T17:57:37.945Z,4.28
2022-12-27T18:00:55.625Z,3.22
2022-12-27T18:04:01.698Z,3.50
2022-12-27T18:07:11.644Z,3.75
2022-12-27T18:10:24.854Z,3.38
2022-12-27T18:13:42.924Z,5.43
2022-12-27T18:16:47.995Z,3.50
2022-12-27T18:19:56.117Z,2.88
2022-12-27T18:23:01.045Z,3.75
2022-12-27T18:26:14.096Z,3.42
2022-12-27T18:29:18.980Z,3.07
2022-12-27T18:32:25.791Z,3.75
2022-12-27T18:35:31.390Z,3.70
2022-12-27T18:38:47.894Z,3.20
2022-12-27T18:41:54.602Z,3.53
2022-12-27T18:45:22.927Z,3.03
2022-12-27T18:48:33.834Z,2.95
2022-12-27T18:51:39.280Z,2.80
2022-12-27T18:54:48.382Z,3.45
2022-12-27T18:58:19.919Z,3.17
2022-12-27T19:01:30.817Z,3.58
2022-12-27T19:04:35.236Z,3.60
2022-12-27T19:07:41.960Z,3.72
2022-12-27T19:10:50.240Z,3.13
2022-12-27T19:13:59.656Z,3.10
2022-12-27T19:17:10.432Z,3.45
2022-12-27T19:20:28.099Z,3.45
2022-12-27T19:23:43.209Z,3.53
2022-12-27T19:26:48.379Z,3.63
2022-12-27T19:29:53.461Z,3.55
2022-12-27T19:32:58.110Z,3.25
2022-12-27T19:36:07.016Z,3.10
2022-12-27T19:39:34.371Z,4.18
2022-12-27T19:42:40.016Z,3.15
2022-12-27T19:45:44.326Z,3.85
2022-12-27T19:49:15.893Z,3.03
2022-12-27T19:55:25.700Z,2.90
2022-12-27T19:58:31.189Z,3.58
2022-12-27T20:01:35.762Z,4.20
2022-12-27T20:04:40.516Z,3.85
2022-12-27T20:07:44.845Z,3.40
2022-12-27T20:10:49.721Z,3.47
2022-12-27T20:13:54.528Z,3.88
2022-12-27T20:16:59.133Z,3.85
2022-12-27T20:20:04.412Z,3.20
2022-12-27T20:23:09.395Z,3.53
2022-12-27T20:26:20.401Z,3.90
2022-12-27T20:29:25.934Z,3.63
2022-12-27T20:32:30.525Z,3.88
2022-12-27T20:35:35.394Z,4.00
2022-12-27T20:38:40.517Z,4.15
2022-12-27T20:41:44.989Z,3.63
2022-12-27T20:44:49.469Z,3.17
2022-12-27T20:47:53.887Z,3.85
2022-12-27T20:50:58.823Z,4.18
2022-12-27T20:54:03.931Z,3.83
2022-12-27T20:57:08.614Z,3.92
2022-12-27T21:00:14.514Z,3.92
2022-12-27T21:03:19.038Z,3.20
2022-12-27T21:06:27.650Z,3.47
2022-12-27T21:09:31.989Z,3.63
2022-12-27T21:12:38.220Z,3.10
2022-12-27T21:15:46.310Z,3.75
2022-12-27T21:18:51.079Z,4.07
2022-12-27T21:21:55.769Z,3.75
2022-12-27T21:25:00.566Z,4.30
2022-12-27T21:28:05.225Z,3.50
2022-12-27T21:31:10.882Z,3.60
2022-12-27T21:34:16.316Z,4.43
2022-12-27T21:37:21.329Z,4.63
2022-12-27T21:40:26.287Z,19.08
2022-12-27T21:43:31.987Z,26.25
2022-12-27T21:46:42.424Z,21.45
2022-12-27T21:49:47.624Z,11.45
2022-12-27T21:52:52.465Z,49.28
2022-12-27T21:56:00.605Z,33.22
2022-12-27T21:59:10.811Z,16.75
2022-12-27T22:02:15.725Z,43.03
2022-12-27T22:05:20.620Z,24.20
2022-12-27T22:08:25.526Z,15.05
2022-12-27T22:11:32.721Z,7.80
2022-12-27T22:14:37.345Z,8.35
2022-12-27T22:17:42.813Z,5.70
2022-12-27T22:20:47.595Z,4.20
2022-12-27T22:23:54.473Z,3.20
2022-12-27T22:26:58.928Z,3.25
2022-12-27T22:30:05.122Z,3.28
2022-12-27T22:33:09.326Z,3.10
2022-12-27T22:36:25.684Z,2.95
2022-12-27T22:39:30.952Z,2.65
2022-12-27T22:42:35.807Z,3.95
2022-12-27T22:45:45.479Z,3.28
2022-12-27T22:48:55.647Z,3.92
2022-12-27T22:52:00.629Z,5.07
2022-12-27T22:55:07.244Z,4.10
2022-12-27T22:58:11.887Z,3.63
2022-12-27T23:01:31.643Z,3.28
2022-12-27T23:04:36.339Z,3.33
2022-12-27T23:08:04.194Z,2.95
2022-12-27T23:14:18.265Z,3.60
2022-12-27T23:17:22.926Z,4.95
2022-12-27T23:20:27.487Z,3.92
2022-12-27T23:23:34.937Z,3.28
2022-12-27T23:26:41.144Z,3.10
2022-12-27T23:29:45.864Z,3.38
2022-12-27T23:32:50.328Z,3.10
2022-12-27T23:35:55.623Z,4.35
2022-12-27T23:39:00.360Z,3.22
2022-12-27T23:42:04.804Z,2.92
2022-12-27T23:45:10.985Z,4.05
2022-12-27T23:48:16.152Z,3.47
2022-12-27T23:51:23.087Z,2.88
2022-12-27T23:54:27.741Z,3.53
2022-12-27T23:57:32.555Z,3.05
